PWSweather.com
Personal Weather Stations
Station Observations
OFENA
OfenaIT

OfenaIT

Lat: 42.328, Lon: 13.761

Elevation: 500

Station Type: PCE-FW20

High Low Average
Temperature 105.6°F40.9°F 68.5°F20.3°F 91.3°F32.9°F
Dew Point 45.5°F7.5°F 19.0°F-7.2°F 34.2°F1.2°F
Winds 8.3 mph NW13.4 mph NW Calm Calm 3.4 mph 5.5 mph
Wind Gusts 15.9 mph25.6 mph 1.6 mph2.6 mph 8.4 mph13.5 mph
Humidity 16% 11% 13%
Pressure 29.79 in1008.80 in 29.65 in1004.10 in -
Precipitation 0.00 in0.00 in - -
Hour Temp Dew Point Humidity Winds Wind Gusts Pressure Precip Precip Rate Daily Precip Total
08:17 AM 69.6°F20.9°C 19.9°F-6.7°C 15% 3.8 mph NE6.1 kmh NE 5.4 mph8.7 kmh 29.79 in1008.8 mb 0.00 in0.0 mm 0.00 in0.0 mm 0.00 in0.0 mm
08:20 AM 91.2°F32.9°C 29.4°F-1.4°C 11% 0.7 mph ESE1.1 kmh ESE 1.6 mph2.6 kmh 29.77 in1008.1 mb 0.00 in0.0 mm 0.00 in0.0 mm 0.00 in0.0 mm
08:30 AM 91.6°F33.1°C 37.5°F3.1°C 15% 0.7 mph ENE1.1 kmh ENE 3.1 mph5.0 kmh 29.77 in1008.1 mb 0.00 in0.0 mm 0.00 in0.0 mm 0.00 in0.0 mm
08:40 AM 91.6°F33.1°C 37.5°F3.1°C 15% Calm Calm 3.1 mph5.0 kmh 29.77 in1008.1 mb 0.00 in0.0 mm 0.00 in0.0 mm 0.00 in0.0 mm
08:50 AM 93.6°F34.2°C 37.3°F2.9°C 14% 0.7 mph SSE1.1 kmh SSE 3.8 mph6.1 kmh 29.76 in1007.8 mb 0.00 in0.0 mm 0.00 in0.0 mm 0.00 in0.0 mm
09:00 AM 90.5°F32.5°C 28.9°F-1.7°C 11% 1.6 mph S2.6 kmh S 5.4 mph8.7 kmh 29.76 in1007.8 mb 0.00 in0.0 mm 0.00 in0.0 mm 0.00 in0.0 mm
09:10 AM 90.1°F32.3°C 28.6°F-1.9°C 11% 3.1 mph S5.0 kmh S 6.9 mph11.1 kmh 29.75 in1007.5 mb 0.00 in0.0 mm 0.00 in0.0 mm 0.00 in0.0 mm
09:20 AM 93.6°F34.2°C 37.3°F2.9°C 14% 2.2 mph S3.5 kmh S 6.0 mph9.7 kmh 29.75 in1007.5 mb 0.00 in0.0 mm 0.00 in0.0 mm 0.00 in0.0 mm
09:30 AM 92.5°F33.6°C 38.2°F3.4°C 15% 3.1 mph SSE5.0 kmh SSE 6.9 mph11.1 kmh 29.76 in1007.8 mb 0.00 in0.0 mm 0.00 in0.0 mm 0.00 in0.0 mm
09:40 AM 93.6°F34.2°C 37.3°F2.9°C 14% 2.2 mph SE3.5 kmh SE 5.4 mph8.7 kmh 29.75 in1007.5 mb 0.00 in0.0 mm 0.00 in0.0 mm 0.00 in0.0 mm
09:50 AM 92.8°F33.8°C 38.5°F3.6°C 15% 2.2 mph S3.5 kmh S 8.3 mph13.4 kmh 29.75 in1007.5 mb 0.00 in0.0 mm 0.00 in0.0 mm 0.00 in0.0 mm
10:00 AM 94.3°F34.6°C 37.8°F3.2°C 14% 3.8 mph SSW6.1 kmh SSW 6.9 mph11.1 kmh 29.76 in1007.8 mb 0.00 in0.0 mm 0.00 in0.0 mm 0.00 in0.0 mm
10:10 AM 93.0°F33.9°C 38.6°F3.7°C 15% 0.7 mph S1.1 kmh S 6.0 mph9.7 kmh 29.75 in1007.5 mb 0.00 in0.0 mm 0.00 in0.0 mm 0.00 in0.0 mm
10:20 AM 93.6°F34.2°C 37.3°F2.9°C 14% 3.1 mph S5.0 kmh S 8.3 mph13.4 kmh 29.75 in1007.5 mb 0.00 in0.0 mm 0.00 in0.0 mm 0.00 in0.0 mm
10:30 AM 95.4°F35.2°C 36.8°F2.7°C 13% 3.8 mph S6.1 kmh S 6.9 mph11.1 kmh 29.75 in1007.5 mb 0.00 in0.0 mm 0.00 in0.0 mm 0.00 in0.0 mm
10:40 AM 95.9°F35.5°C 37.2°F2.9°C 13% 2.2 mph S3.5 kmh S 7.6 mph12.2 kmh 29.74 in1007.1 mb 0.00 in0.0 mm 0.00 in0.0 mm 0.00 in0.0 mm
10:50 AM 95.2°F35.1°C 36.7°F2.6°C 13% 2.2 mph SSW3.5 kmh SSW 6.9 mph11.1 kmh 29.74 in1007.1 mb 0.00 in0.0 mm 0.00 in0.0 mm 0.00 in0.0 mm
11:00 AM 95.7°F35.4°C 37.1°F2.8°C 13% 5.4 mph S8.7 kmh S 9.2 mph14.8 kmh 29.73 in1006.8 mb 0.00 in0.0 mm 0.00 in0.0 mm 0.00 in0.0 mm
11:10 AM 99.3°F37.4°C 35.6°F2.0°C 11% 6.0 mph S9.7 kmh S 8.3 mph13.4 kmh 29.73 in1006.8 mb 0.00 in0.0 mm 0.00 in0.0 mm 0.00 in0.0 mm
11:20 AM 99.3°F37.4°C 35.6°F2.0°C 11% 3.1 mph SSW5.0 kmh SSW 8.3 mph13.4 kmh 29.73 in1006.8 mb 0.00 in0.0 mm 0.00 in0.0 mm 0.00 in0.0 mm
11:30 AM 98.4°F36.9°C 37.1°F2.8°C 12% 4.5 mph SSE7.2 kmh SSE 9.8 mph15.8 kmh 29.73 in1006.8 mb 0.00 in0.0 mm 0.00 in0.0 mm 0.00 in0.0 mm
11:40 AM 98.4°F36.9°C 37.1°F2.8°C 12% 6.0 mph S9.7 kmh S 9.8 mph15.8 kmh 29.71 in1006.1 mb 0.00 in0.0 mm 0.00 in0.0 mm 0.00 in0.0 mm
11:50 AM 101.7°F38.7°C 45.5°F7.5°C 15% 6.9 mph S11.1 kmh S 9.8 mph15.8 kmh 29.71 in1006.1 mb 0.00 in0.0 mm 0.00 in0.0 mm 0.00 in0.0 mm
12:00 PM 99.9°F37.7°C 36.1°F2.3°C 11% 4.5 mph S7.2 kmh S 9.8 mph15.8 kmh 29.71 in1006.1 mb 0.00 in0.0 mm 0.00 in0.0 mm 0.00 in0.0 mm
12:10 PM 98.1°F36.7°C 36.9°F2.7°C 12% 3.8 mph SW6.1 kmh SW 10.7 mph17.2 kmh 29.71 in1006.1 mb 0.00 in0.0 mm 0.00 in0.0 mm 0.00 in0.0 mm
12:20 PM 96.1°F35.6°C 37.4°F3.0°C 13% 3.8 mph SSW6.1 kmh SSW 10.7 mph17.2 kmh 29.70 in1005.8 mb 0.00 in0.0 mm 0.00 in0.0 mm 0.00 in0.0 mm
12:30 PM 97.2°F36.2°C 36.2°F2.3°C 12% 4.5 mph SSE7.2 kmh SSE 9.2 mph14.8 kmh 29.70 in1005.8 mb 0.00 in0.0 mm 0.00 in0.0 mm 0.00 in0.0 mm
12:40 PM 100.4°F38.0°C 44.5°F6.9°C 15% 4.5 mph SW7.2 kmh SW 6.9 mph11.1 kmh 29.70 in1005.8 mb 0.00 in0.0 mm 0.00 in0.0 mm 0.00 in0.0 mm
12:50 PM 96.1°F35.6°C 37.4°F3.0°C 13% 2.2 mph SW3.5 kmh SW 9.2 mph14.8 kmh 29.70 in1005.8 mb 0.00 in0.0 mm 0.00 in0.0 mm 0.00 in0.0 mm
01:00 PM 99.5°F37.5°C 35.8°F2.1°C 11% 5.4 mph W8.7 kmh W 9.2 mph14.8 kmh 29.70 in1005.8 mb 0.00 in0.0 mm 0.00 in0.0 mm 0.00 in0.0 mm
01:10 PM 102.2°F39.0°C 44.1°F6.7°C 14% 1.6 mph NNW2.6 kmh NNW 11.4 mph18.3 kmh 29.70 in1005.8 mb 0.00 in0.0 mm 0.00 in0.0 mm 0.00 in0.0 mm
01:20 PM 103.3°F39.6°C 44.9°F7.2°C 14% 5.4 mph SSE8.7 kmh SSE 12.1 mph19.5 kmh 29.69 in1005.4 mb 0.00 in0.0 mm 0.00 in0.0 mm 0.00 in0.0 mm
01:30 PM 102.7°F39.3°C 44.5°F6.9°C 14% 0.7 mph SE1.1 kmh SE 15.2 mph24.5 kmh 29.69 in1005.4 mb 0.00 in0.0 mm 0.00 in0.0 mm 0.00 in0.0 mm
01:40 PM 105.6°F40.9°C 44.8°F7.1°C 13% 7.6 mph W12.2 kmh W 9.8 mph15.8 kmh 29.69 in1005.4 mb 0.00 in0.0 mm 0.00 in0.0 mm 0.00 in0.0 mm
01:50 PM 103.3°F39.6°C 44.9°F7.2°C 14% 8.3 mph NW13.4 kmh NW 11.4 mph18.3 kmh 29.69 in1005.4 mb 0.00 in0.0 mm 0.00 in0.0 mm 0.00 in0.0 mm
02:00 PM 104.9°F40.5°C 44.2°F6.8°C 13% 2.2 mph N3.5 kmh N 10.7 mph17.2 kmh 29.68 in1005.1 mb 0.00 in0.0 mm 0.00 in0.0 mm 0.00 in0.0 mm
02:10 PM 104.0°F40.0°C 43.5°F6.4°C 13% 5.4 mph NW8.7 kmh NW 10.7 mph17.2 kmh 29.68 in1005.1 mb 0.00 in0.0 mm 0.00 in0.0 mm 0.00 in0.0 mm
02:20 PM 105.4°F40.8°C 44.6°F7.0°C 13% 1.6 mph WSW2.6 kmh WSW 10.7 mph17.2 kmh 29.68 in1005.1 mb 0.00 in0.0 mm 0.00 in0.0 mm 0.00 in0.0 mm
02:30 PM 104.9°F40.5°C 44.2°F6.8°C 13% 5.4 mph N8.7 kmh N 12.1 mph19.5 kmh 29.68 in1005.1 mb 0.00 in0.0 mm 0.00 in0.0 mm 0.00 in0.0 mm
02:40 PM 104.2°F40.1°C 43.7°F6.5°C 13% 7.6 mph N12.2 kmh N 10.7 mph17.2 kmh 29.68 in1005.1 mb 0.00 in0.0 mm 0.00 in0.0 mm 0.00 in0.0 mm
02:50 PM 104.0°F40.0°C 43.5°F6.4°C 13% 6.0 mph WNW9.7 kmh WNW 12.1 mph19.5 kmh 29.68 in1005.1 mb 0.00 in0.0 mm 0.00 in0.0 mm 0.00 in0.0 mm
03:00 PM 103.1°F39.5°C 44.8°F7.1°C 14% 6.0 mph NW9.7 kmh NW 15.9 mph25.6 kmh 29.68 in1005.1 mb 0.00 in0.0 mm 0.00 in0.0 mm 0.00 in0.0 mm
03:10 PM 103.3°F39.6°C 44.9°F7.2°C 14% 6.9 mph NNW11.1 kmh NNW 13.6 mph21.9 kmh 29.68 in1005.1 mb 0.00 in0.0 mm 0.00 in0.0 mm 0.00 in0.0 mm
03:20 PM 102.4°F39.1°C 44.2°F6.8°C 14% 2.2 mph NW3.5 kmh NW 13.6 mph21.9 kmh 29.67 in1004.7 mb 0.00 in0.0 mm 0.00 in0.0 mm 0.00 in0.0 mm
03:30 PM 104.7°F40.4°C 44.1°F6.7°C 13% 4.5 mph S7.2 kmh S 9.8 mph15.8 kmh 29.67 in1004.7 mb 0.00 in0.0 mm 0.00 in0.0 mm 0.00 in0.0 mm
03:40 PM 102.7°F39.3°C 44.5°F6.9°C 14% 2.2 mph N3.5 kmh N 10.7 mph17.2 kmh 29.67 in1004.7 mb 0.00 in0.0 mm 0.00 in0.0 mm 0.00 in0.0 mm
03:50 PM 101.7°F38.7°C 45.5°F7.5°C 15% 2.2 mph NW3.5 kmh NW 11.4 mph18.3 kmh 29.66 in1004.4 mb 0.00 in0.0 mm 0.00 in0.0 mm 0.00 in0.0 mm
04:00 PM 100.9°F38.3°C 44.9°F7.2°C 15% 4.5 mph WNW7.2 kmh WNW 13.0 mph20.9 kmh 29.66 in1004.4 mb 0.00 in0.0 mm 0.00 in0.0 mm 0.00 in0.0 mm
04:10 PM 102.6°F39.2°C 44.3°F6.8°C 14% 3.8 mph WSW6.1 kmh WSW 6.9 mph11.1 kmh 29.65 in1004.1 mb 0.00 in0.0 mm 0.00 in0.0 mm 0.00 in0.0 mm
04:20 PM 100.9°F38.3°C 44.9°F7.2°C 15% 3.8 mph SW6.1 kmh SW 8.3 mph13.4 kmh 29.66 in1004.4 mb 0.00 in0.0 mm 0.00 in0.0 mm 0.00 in0.0 mm
04:30 PM 99.0°F37.2°C 35.4°F1.9°C 11% 6.0 mph NW9.7 kmh NW 13.0 mph20.9 kmh 29.66 in1004.4 mb 0.00 in0.0 mm 0.00 in0.0 mm 0.00 in0.0 mm
04:40 PM 97.7°F36.5°C 36.6°F2.6°C 12% 3.1 mph NW5.0 kmh NW 9.2 mph14.8 kmh 29.66 in1004.4 mb 0.00 in0.0 mm 0.00 in0.0 mm 0.00 in0.0 mm
04:50 PM 95.4°F35.2°C 36.8°F2.7°C 13% 6.0 mph NNW9.7 kmh NNW 13.0 mph20.9 kmh 29.66 in1004.4 mb 0.00 in0.0 mm 0.00 in0.0 mm 0.00 in0.0 mm
05:00 PM 94.3°F34.6°C 37.8°F3.2°C 14% 8.3 mph N13.4 kmh N 10.7 mph17.2 kmh 29.66 in1004.4 mb 0.00 in0.0 mm 0.00 in0.0 mm 0.00 in0.0 mm
05:10 PM 93.0°F33.9°C 38.6°F3.7°C 15% 5.4 mph NNW8.7 kmh NNW 13.0 mph20.9 kmh 29.67 in1004.7 mb 0.00 in0.0 mm 0.00 in0.0 mm 0.00 in0.0 mm
05:20 PM 90.9°F32.7°C 29.2°F-1.6°C 11% 5.4 mph NW8.7 kmh NW 11.4 mph18.3 kmh 29.66 in1004.4 mb 0.00 in0.0 mm 0.00 in0.0 mm 0.00 in0.0 mm
05:30 PM 89.6°F32.0°C 28.2°F-2.1°C 11% 3.1 mph NNW5.0 kmh NNW 11.4 mph18.3 kmh 29.66 in1004.4 mb 0.00 in0.0 mm 0.00 in0.0 mm 0.00 in0.0 mm
05:40 PM 88.3°F31.3°C 29.4°F-1.4°C 12% 5.4 mph NNW8.7 kmh NNW 10.7 mph17.2 kmh 29.66 in1004.4 mb 0.00 in0.0 mm 0.00 in0.0 mm 0.00 in0.0 mm
05:50 PM 87.4°F30.8°C 30.6°F-0.8°C 13% 6.0 mph NNW9.7 kmh NNW 11.4 mph18.3 kmh 29.66 in1004.4 mb 0.00 in0.0 mm 0.00 in0.0 mm 0.00 in0.0 mm
06:00 PM 88.5°F31.4°C 29.5°F-1.4°C 12% 2.2 mph N3.5 kmh N 11.4 mph18.3 kmh 29.67 in1004.7 mb 0.00 in0.0 mm 0.00 in0.0 mm 0.00 in0.0 mm
06:10 PM 91.0°F32.8°C 29.3°F-1.5°C 11% 3.8 mph N6.1 kmh N 11.4 mph18.3 kmh 29.66 in1004.4 mb 0.00 in0.0 mm 0.00 in0.0 mm 0.00 in0.0 mm
06:20 PM 90.0°F32.2°C 28.5°F-1.9°C 11% 3.1 mph N5.0 kmh N 15.2 mph24.5 kmh 29.66 in1004.4 mb 0.00 in0.0 mm 0.00 in0.0 mm 0.00 in0.0 mm
06:30 PM 88.3°F31.3°C 29.4°F-1.4°C 12% 3.1 mph N5.0 kmh N 13.0 mph20.9 kmh 29.67 in1004.7 mb 0.00 in0.0 mm 0.00 in0.0 mm 0.00 in0.0 mm
06:40 PM 87.3°F30.7°C 30.5°F-0.8°C 13% 6.0 mph NNE9.7 kmh NNE 11.4 mph18.3 kmh 29.67 in1004.7 mb 0.00 in0.0 mm 0.00 in0.0 mm 0.00 in0.0 mm
06:50 PM 86.4°F30.2°C 29.8°F-1.2°C 13% 2.2 mph N3.5 kmh N 9.2 mph14.8 kmh 29.68 in1005.1 mb 0.00 in0.0 mm 0.00 in0.0 mm 0.00 in0.0 mm
07:00 PM 85.3°F29.6°C 30.7°F-0.7°C 14% 2.2 mph N3.5 kmh N 6.0 mph9.7 kmh 29.68 in1005.1 mb 0.00 in0.0 mm 0.00 in0.0 mm 0.00 in0.0 mm
07:10 PM 84.0°F28.9°C 31.5°F-0.3°C 15% 1.6 mph NE2.6 kmh NE 3.8 mph6.1 kmh 29.68 in1005.1 mb 0.00 in0.0 mm 0.00 in0.0 mm 0.00 in0.0 mm
07:20 PM 83.7°F28.7°C 31.2°F-0.4°C 15% 3.1 mph SW5.0 kmh SW 10.7 mph17.2 kmh 29.68 in1005.1 mb 0.00 in0.0 mm 0.00 in0.0 mm 0.00 in0.0 mm
07:30 PM 83.7°F28.7°C 31.2°F-0.4°C 15% 5.4 mph ESE8.7 kmh ESE 9.2 mph14.8 kmh 29.69 in1005.4 mb 0.00 in0.0 mm 0.00 in0.0 mm 0.00 in0.0 mm
07:40 PM 82.9°F28.3°C 30.6°F-0.8°C 15% 4.5 mph NNE7.2 kmh NNE 7.6 mph12.2 kmh 29.70 in1005.8 mb 0.00 in0.0 mm 0.00 in0.0 mm 0.00 in0.0 mm
07:50 PM 82.6°F28.1°C 30.3°F-0.9°C 15% 0.7 mph N1.1 kmh N 11.4 mph18.3 kmh 29.70 in1005.8 mb 0.00 in0.0 mm 0.00 in0.0 mm 0.00 in0.0 mm
08:00 PM 82.2°F27.9°C 24.6°F-4.1°C 12% 1.6 mph SW2.6 kmh SW 6.9 mph11.1 kmh 29.70 in1005.8 mb 0.00 in0.0 mm 0.00 in0.0 mm 0.00 in0.0 mm
08:10 PM 81.7°F27.6°C 24.2°F-4.3°C 12% 1.6 mph SW2.6 kmh SW 8.3 mph13.4 kmh 29.70 in1005.8 mb 0.00 in0.0 mm 0.00 in0.0 mm 0.00 in0.0 mm
08:20 PM 81.1°F27.3°C 23.8°F-4.6°C 12% 3.1 mph ESE5.0 kmh ESE 5.4 mph8.7 kmh 29.70 in1005.8 mb 0.00 in0.0 mm 0.00 in0.0 mm 0.00 in0.0 mm
08:30 PM 80.8°F27.1°C 23.5°F-4.7°C 12% 2.2 mph ENE3.5 kmh ENE 13.6 mph21.9 kmh 29.72 in1006.4 mb 0.00 in0.0 mm 0.00 in0.0 mm 0.00 in0.0 mm
08:40 PM 81.0°F27.2°C 23.6°F-4.7°C 12% 3.8 mph E6.1 kmh E 5.4 mph8.7 kmh 29.72 in1006.4 mb 0.00 in0.0 mm 0.00 in0.0 mm 0.00 in0.0 mm
08:50 PM 80.2°F26.8°C 25.0°F-3.9°C 13% 1.6 mph E2.6 kmh E 5.4 mph8.7 kmh 29.72 in1006.4 mb 0.00 in0.0 mm 0.00 in0.0 mm 0.00 in0.0 mm
09:00 PM 79.9°F26.6°C 24.7°F-4.1°C 13% 2.2 mph E3.5 kmh E 4.5 mph7.2 kmh 29.73 in1006.8 mb 0.00 in0.0 mm 0.00 in0.0 mm 0.00 in0.0 mm
09:10 PM 79.7°F26.5°C 24.6°F-4.1°C 13% 2.2 mph ENE3.5 kmh ENE 3.8 mph6.1 kmh 29.73 in1006.8 mb 0.00 in0.0 mm 0.00 in0.0 mm 0.00 in0.0 mm
09:20 PM 78.8°F26.0°C 23.9°F-4.5°C 13% 2.2 mph NE3.5 kmh NE 3.1 mph5.0 kmh 29.73 in1006.8 mb 0.00 in0.0 mm 0.00 in0.0 mm 0.00 in0.0 mm
09:30 PM 77.9°F25.5°C 24.9°F-3.9°C 14% 2.2 mph NE3.5 kmh NE 3.1 mph5.0 kmh 29.73 in1006.8 mb 0.00 in0.0 mm 0.00 in0.0 mm 0.00 in0.0 mm
09:40 PM 77.0°F25.0°C 24.2°F-4.3°C 14% 1.6 mph NE2.6 kmh NE 3.1 mph5.0 kmh 29.73 in1006.8 mb 0.00 in0.0 mm 0.00 in0.0 mm 0.00 in0.0 mm
09:50 PM 76.6°F24.8°C 25.6°F-3.6°C 15% 2.2 mph NE3.5 kmh NE 3.8 mph6.1 kmh 29.73 in1006.8 mb 0.00 in0.0 mm 0.00 in0.0 mm 0.00 in0.0 mm